createdAt,value
2018-11-27T00:00:19.506Z,18.82
2018-11-27T00:01:23.117Z,17.45
2018-11-27T00:02:26.839Z,18.15
2018-11-27T00:03:35.920Z,19.70
2018-11-27T00:04:39.518Z,18.17
2018-11-27T00:05:43.161Z,19.52
2018-11-27T00:06:48.781Z,19.60
2018-11-27T00:07:52.428Z,20.20
2018-11-27T00:08:56.136Z,18.92
2018-11-27T00:09:59.763Z,19.23
2018-11-27T00:11:03.389Z,18.95
2018-11-27T00:12:07.017Z,19.55
2018-11-27T00:13:10.670Z,19.20
2018-11-27T00:14:14.358Z,18.98
2018-11-27T00:15:18.105Z,17.45
2018-11-27T00:16:21.734Z,20.37
2018-11-27T00:17:25.512Z,17.80
2018-11-27T00:18:29.189Z,18.92
2018-11-27T00:19:32.818Z,18.90
2018-11-27T00:20:36.663Z,18.77
2018-11-27T00:21:40.286Z,18.82
2018-11-27T00:22:43.925Z,18.82
2018-11-27T00:23:47.568Z,17.98
2018-11-27T00:24:51.204Z,18.37
2018-11-27T00:25:54.857Z,18.07
2018-11-27T00:26:58.488Z,18.05
2018-11-27T00:28:02.234Z,18.50
2018-11-27T00:29:05.920Z,19.25
2018-11-27T00:30:12.530Z,18.80
2018-11-27T00:31:16.273Z,17.87
2018-11-27T00:32:19.892Z,18.60
2018-11-27T00:33:23.567Z,18.45
2018-11-27T00:34:27.210Z,18.57
2018-11-27T00:35:32.135Z,18.48
2018-11-27T00:36:35.797Z,18.70
2018-11-27T00:37:39.503Z,19.35
2018-11-27T00:38:43.140Z,17.80
2018-11-27T00:39:46.789Z,17.90
2018-11-27T00:40:50.463Z,18.52
2018-11-27T00:41:54.078Z,18.65
2018-11-27T00:42:57.764Z,19.30
2018-11-27T00:44:01.427Z,19.17
2018-11-27T00:45:07.129Z,18.73
2018-11-27T00:46:10.778Z,19.77
2018-11-27T00:47:14.389Z,19.90
2018-11-27T00:48:18.045Z,20.23
2018-11-27T00:49:21.650Z,20.40
2018-11-27T00:50:25.354Z,20.08
2018-11-27T00:51:29.000Z,20.50
2018-11-27T00:52:32.604Z,20.35
2018-11-27T00:53:36.221Z,19.52
2018-11-27T00:54:39.856Z,19.40
2018-11-27T00:55:43.537Z,19.62
2018-11-27T00:56:47.145Z,18.77
2018-11-27T00:57:52.180Z,19.65
2018-11-27T00:58:55.796Z,18.82
2018-11-27T00:59:59.374Z,20.10
2018-11-27T01:01:03.013Z,17.77
2018-11-27T01:02:06.638Z,18.92
2018-11-27T01:03:10.290Z,17.62
2018-11-27T01:04:13.874Z,20.27
2018-11-27T01:05:18.829Z,17.67
2018-11-27T01:06:22.459Z,18.37
2018-11-27T01:07:26.107Z,18.82
2018-11-27T01:08:29.758Z,18.10
2018-11-27T01:09:33.400Z,18.98
2018-11-27T01:10:37.027Z,19.25
2018-11-27T01:11:40.651Z,17.92
2018-11-27T01:12:44.311Z,17.80
2018-11-27T01:13:47.965Z,19.62
2018-11-27T01:14:51.620Z,18.62
2018-11-27T01:15:55.295Z,19.98
2018-11-27T01:16:58.944Z,18.55
2018-11-27T01:18:02.644Z,19.32
2018-11-27T01:19:06.291Z,19.25
2018-11-27T01:20:12.418Z,19.67
2018-11-27T01:21:16.056Z,19.23
2018-11-27T01:22:19.706Z,20.48
2018-11-27T01:23:23.374Z,19.52
2018-11-27T01:24:27.140Z,18.77
2018-11-27T01:25:30.795Z,20.80
2018-11-27T01:26:34.413Z,18.98
2018-11-27T01:27:38.046Z,19.25
2018-11-27T01:28:41.701Z,19.73
2018-11-27T01:29:45.314Z,19.32
2018-11-27T01:30:49.039Z,19.92
2018-11-27T01:31:52.668Z,20.52
2018-11-27T01:32:56.290Z,19.35
2018-11-27T01:33:59.916Z,19.37
2018-11-27T01:35:03.602Z,20.30
2018-11-27T01:36:07.208Z,19.73
2018-11-27T01:37:10.862Z,18.85
2018-11-27T01:38:14.569Z,18.05
2018-11-27T01:39:18.205Z,19.25
2018-11-27T01:40:22.861Z,19.15
2018-11-27T01:41:26.479Z,20.02
2018-11-27T01:42:30.223Z,18.48
2018-11-27T01:43:34.081Z,19.57
2018-11-27T01:44:37.728Z,19.65
2018-11-27T01:45:41.489Z,19.50
2018-11-27T01:46:45.090Z,19.95
2018-11-27T01:47:48.842Z,19.25
2018-11-27T01:48:52.807Z,18.70
2018-11-27T01:49:56.422Z,19.57
2018-11-27T01:51:00.057Z,18.73
2018-11-27T01:52:03.686Z,18.70
2018-11-27T01:53:07.293Z,19.15
2018-11-27T01:54:10.910Z,18.73
2018-11-27T01:55:15.526Z,19.27
2018-11-27T01:56:19.197Z,19.42
2018-11-27T01:57:22.879Z,19.05
2018-11-27T01:58:26.499Z,19.20
2018-11-27T01:59:30.095Z,19.48
2018-11-27T02:00:33.841Z,19.07
2018-11-27T02:01:37.590Z,19.37
2018-11-27T02:02:41.245Z,18.00
2018-11-27T02:03:44.888Z,19.45
2018-11-27T02:04:48.533Z,19.15
2018-11-27T02:05:52.199Z,20.55
2018-11-27T02:06:55.856Z,18.15
2018-11-27T02:07:59.466Z,19.00
2018-11-27T02:09:04.489Z,18.00
2018-11-27T02:10:09.803Z,19.02
2018-11-27T02:11:13.444Z,19.25
2018-11-27T02:12:17.081Z,18.70
2018-11-27T02:13:20.777Z,18.98
2018-11-27T02:14:24.419Z,19.40
2018-11-27T02:15:28.766Z,18.70
2018-11-27T02:16:32.401Z,19.45
2018-11-27T02:17:36.147Z,18.57
2018-11-27T02:18:39.757Z,19.02
2018-11-27T02:19:43.404Z,18.48
2018-11-27T02:20:47.045Z,18.25
2018-11-27T02:21:50.764Z,19.12
2018-11-27T02:22:54.500Z,19.23
2018-11-27T02:23:58.098Z,19.12
2018-11-27T02:25:01.728Z,19.92
2018-11-27T02:26:05.482Z,18.75
2018-11-27T02:27:09.220Z,18.92
2018-11-27T02:28:12.836Z,18.32
2018-11-27T02:29:16.453Z,17.17
2018-11-27T02:30:21.394Z,18.15
2018-11-27T02:31:25.079Z,18.82
2018-11-27T02:32:28.719Z,20.48
2018-11-27T02:33:32.458Z,18.05
2018-11-27T02:34:36.076Z,18.57
2018-11-27T02:35:39.686Z,18.77
2018-11-27T02:36:43.329Z,17.60
2018-11-27T02:37:49.025Z,20.17
2018-11-27T02:38:52.674Z,19.90
2018-11-27T02:39:56.299Z,19.42
2018-11-27T02:40:59.897Z,19.52
2018-11-27T02:42:03.555Z,18.73
2018-11-27T02:43:07.178Z,19.35
2018-11-27T02:44:10.843Z,20.10
2018-11-27T02:45:15.795Z,19.70
2018-11-27T02:46:19.431Z,17.35
2018-11-27T02:47:23.094Z,18.52
2018-11-27T02:48:26.732Z,18.80
2018-11-27T02:49:30.506Z,19.12
2018-11-27T02:50:34.254Z,21.23
2018-11-27T02:51:37.865Z,18.48
2018-11-27T02:52:41.483Z,19.77
2018-11-27T02:53:45.217Z,17.90
2018-11-27T02:54:48.825Z,18.65
2018-11-27T02:55:52.654Z,18.42
2018-11-27T02:56:56.336Z,18.07
2018-11-27T02:58:00.040Z,17.92
2018-11-27T02:59:03.679Z,18.62
2018-11-27T03:00:10.313Z,20.25
2018-11-27T03:01:13.934Z,18.80
2018-11-27T03:02:17.562Z,19.25
2018-11-27T03:03:21.358Z,18.30
2018-11-27T03:04:25.005Z,19.00
2018-11-27T03:05:35.016Z,18.87
2018-11-27T03:06:38.642Z,19.10
2018-11-27T03:07:42.251Z,18.50
2018-11-27T03:08:45.861Z,19.40
2018-11-27T03:09:49.512Z,17.20
2018-11-27T03:10:53.134Z,18.82
2018-11-27T03:11:56.736Z,19.05
2018-11-27T03:13:00.465Z,19.07
2018-11-27T03:14:04.646Z,18.37
2018-11-27T03:15:10.226Z,17.77
2018-11-27T03:16:14.092Z,19.17
2018-11-27T03:17:17.705Z,19.32
2018-11-27T03:18:21.325Z,18.40
2018-11-27T03:19:24.930Z,18.73
2018-11-27T03:20:28.573Z,18.07
2018-11-27T03:21:32.205Z,19.50
2018-11-27T03:22:35.826Z,18.82
2018-11-27T03:23:39.530Z,18.15
2018-11-27T03:24:43.216Z,18.12
2018-11-27T03:25:46.831Z,19.50
2018-11-27T03:26:50.482Z,18.40
2018-11-27T03:27:54.390Z,19.15
2018-11-27T03:28:57.999Z,19.60
2018-11-27T03:30:01.682Z,19.42
2018-11-27T03:31:05.387Z,19.35
2018-11-27T03:32:09.034Z,18.98
2018-11-27T03:33:12.642Z,18.75
2018-11-27T03:34:16.250Z,19.05
2018-11-27T03:35:21.058Z,18.25
2018-11-27T03:36:24.650Z,19.42
2018-11-27T03:37:28.236Z,17.90
2018-11-27T03:38:31.890Z,18.07
2018-11-27T03:39:35.516Z,18.32
2018-11-27T03:40:39.137Z,19.00
2018-11-27T03:41:42.753Z,18.45
2018-11-27T03:42:46.435Z,17.30
2018-11-27T03:43:50.145Z,18.90
2018-11-27T03:44:53.768Z,19.05
2018-11-27T03:45:57.409Z,20.00
2018-11-27T03:47:01.050Z,18.80
2018-11-27T03:48:04.926Z,20.17
2018-11-27T03:49:08.616Z,19.35
2018-11-27T03:50:15.138Z,19.20
2018-11-27T03:51:18.798Z,17.92
2018-11-27T03:52:22.414Z,18.40
2018-11-27T03:53:26.060Z,18.45
2018-11-27T03:54:29.681Z,18.87
2018-11-27T03:55:33.294Z,19.27
2018-11-27T03:56:36.913Z,17.60
2018-11-27T03:57:40.646Z,18.60
2018-11-27T03:58:44.330Z,18.27
2018-11-27T03:59:47.946Z,18.30
2018-11-27T04:00:51.564Z,18.40
2018-11-27T04:01:55.374Z,18.57
2018-11-27T04:03:08.924Z,18.60
2018-11-27T04:04:12.623Z,18.98
2018-11-27T04:05:16.259Z,19.30
2018-11-27T04:06:19.882Z,18.65
2018-11-27T04:07:23.541Z,19.17
2018-11-27T04:08:27.132Z,19.20
2018-11-27T04:09:30.778Z,18.50
2018-11-27T04:10:34.451Z,22.98
2018-11-27T04:11:38.084Z,18.30
2018-11-27T04:12:41.703Z,18.05
2018-11-27T04:13:45.294Z,18.82
2018-11-27T04:14:49.032Z,19.80
2018-11-27T04:15:52.695Z,18.62
2018-11-27T04:16:56.302Z,18.37
2018-11-27T04:17:59.985Z,19.50
2018-11-27T04:19:03.580Z,17.30
2018-11-27T04:20:08.550Z,19.62
2018-11-27T04:21:12.175Z,18.90
2018-11-27T04:22:15.781Z,17.55
2018-11-27T04:23:19.474Z,18.55
2018-11-27T04:24:23.098Z,18.45
2018-11-27T04:25:26.771Z,18.95
2018-11-27T04:26:30.375Z,18.10
2018-11-27T04:27:34.086Z,19.07
2018-11-27T04:28:37.835Z,18.48
2018-11-27T04:29:41.434Z,18.65
2018-11-27T04:30:45.661Z,18.23
2018-11-27T04:31:49.263Z,18.98
2018-11-27T04:32:52.895Z,18.98
2018-11-27T04:33:56.532Z,18.48
2018-11-27T04:35:00.258Z,20.45
2018-11-27T04:36:03.893Z,18.75
2018-11-27T04:37:07.533Z,18.50
2018-11-27T04:38:11.140Z,17.98
2018-11-27T04:39:14.766Z,18.80
2018-11-27T04:40:19.422Z,17.55
2018-11-27T04:41:23.075Z,18.77
2018-11-27T04:42:26.690Z,18.73
2018-11-27T04:43:30.409Z,18.80
2018-11-27T04:44:34.029Z,18.77
2018-11-27T04:45:37.646Z,17.30
2018-11-27T04:46:41.294Z,19.45
2018-11-27T04:47:44.926Z,17.80
2018-11-27T04:48:48.630Z,18.80
2018-11-27T04:49:52.245Z,18.42
2018-11-27T04:50:56.073Z,18.05
2018-11-27T04:51:59.730Z,18.20
2018-11-27T04:53:03.468Z,19.05
2018-11-27T04:54:07.198Z,18.77
2018-11-27T04:55:12.630Z,17.95
2018-11-27T04:56:16.368Z,18.07
2018-11-27T04:57:19.977Z,19.05
2018-11-27T04:58:23.645Z,17.55
2018-11-27T04:59:27.249Z,18.48
2018-11-27T05:00:30.867Z,18.30
2018-11-27T05:01:34.523Z,18.92
2018-11-27T05:02:38.203Z,18.55
2018-11-27T05:03:41.793Z,17.15
2018-11-27T05:04:45.576Z,19.70
2018-11-27T05:05:49.790Z,17.67
2018-11-27T05:06:53.419Z,17.40
2018-11-27T05:07:57.054Z,17.75
2018-11-27T05:09:00.687Z,18.55
2018-11-27T05:10:07.602Z,17.52
2018-11-27T05:11:11.226Z,17.80
2018-11-27T05:12:14.925Z,18.65
2018-11-27T05:13:18.542Z,18.98
2018-11-27T05:14:22.255Z,18.55
2018-11-27T05:15:26.598Z,18.23
2018-11-27T05:16:30.239Z,17.20
2018-11-27T05:17:33.910Z,17.27
2018-11-27T05:18:37.539Z,19.30
2018-11-27T05:19:41.143Z,16.77
2018-11-27T05:20:44.766Z,17.17
2018-11-27T05:21:48.886Z,17.00
2018-11-27T05:22:52.552Z,17.40
2018-11-27T05:23:56.165Z,18.00
2018-11-27T05:24:59.781Z,17.37
2018-11-27T05:26:03.437Z,18.80
2018-11-27T05:27:07.056Z,17.40
2018-11-27T05:28:10.723Z,18.55
2018-11-27T05:30:25.447Z,18.62
2018-11-27T05:31:29.053Z,18.00
2018-11-27T05:32:32.661Z,17.32
2018-11-27T05:33:36.435Z,17.75
2018-11-27T05:34:40.044Z,18.40
2018-11-27T05:35:43.642Z,20.70
2018-11-27T05:36:47.310Z,17.37
2018-11-27T05:37:51.186Z,17.15
2018-11-27T05:38:54.856Z,18.23
2018-11-27T05:39:58.486Z,18.40
2018-11-27T05:41:02.086Z,19.27
2018-11-27T05:42:05.948Z,18.32
2018-11-27T05:43:10.335Z,18.32
2018-11-27T05:44:13.962Z,17.65
2018-11-27T05:45:18.713Z,18.45
2018-11-27T05:46:22.348Z,21.10
2018-11-27T05:47:25.953Z,18.60
2018-11-27T05:48:29.562Z,18.40
2018-11-27T05:49:33.173Z,17.90
2018-11-27T05:50:36.786Z,18.37
2018-11-27T05:51:40.421Z,18.15
2018-11-27T05:52:44.226Z,22.07
2018-11-27T05:53:47.879Z,17.15
2018-11-27T05:54:51.525Z,19.05
2018-11-27T05:55:55.130Z,20.95
2018-11-27T05:56:58.830Z,20.08
2018-11-27T05:58:02.429Z,18.82
2018-11-27T05:59:06.390Z,18.37
2018-11-27T06:00:12.592Z,18.73
2018-11-27T06:01:16.215Z,19.37
2018-11-27T06:02:19.888Z,18.65
2018-11-27T06:03:23.507Z,21.62
2018-11-27T06:04:27.128Z,21.93
2018-11-27T06:05:30.837Z,20.00
2018-11-27T06:06:34.482Z,17.92
2018-11-27T06:07:38.130Z,18.90
2018-11-27T06:08:41.770Z,18.95
2018-11-27T06:09:45.400Z,19.00
2018-11-27T06:10:49.068Z,17.27
2018-11-27T06:11:52.702Z,18.45
2018-11-27T06:12:56.345Z,17.67
2018-11-27T06:13:59.963Z,18.35
2018-11-27T06:15:03.597Z,19.35
2018-11-27T06:16:07.227Z,18.87
2018-11-27T06:17:10.851Z,19.60
2018-11-27T06:18:14.463Z,18.00
2018-11-27T06:19:18.121Z,19.15
2018-11-27T06:20:22.421Z,19.05
2018-11-27T06:21:26.134Z,18.45
2018-11-27T06:22:29.733Z,18.27
2018-11-27T06:23:33.327Z,17.92
2018-11-27T06:24:36.942Z,19.20
2018-11-27T06:25:40.603Z,17.60
2018-11-27T06:26:44.268Z,17.62
2018-11-27T06:27:49.344Z,17.95
2018-11-27T06:28:52.970Z,18.50
2018-11-27T06:29:56.602Z,18.37
2018-11-27T06:31:00.259Z,20.25
2018-11-27T06:32:03.880Z,18.27
2018-11-27T06:33:07.516Z,16.62
2018-11-27T06:34:11.165Z,17.98
2018-11-27T06:35:17.179Z,17.27
2018-11-27T06:36:20.787Z,19.12
2018-11-27T06:37:24.427Z,18.10
2018-11-27T06:38:28.046Z,18.27
2018-11-27T06:39:31.723Z,17.48
2018-11-27T06:40:35.331Z,18.00
2018-11-27T06:41:38.925Z,18.70
2018-11-27T06:42:42.706Z,18.35
2018-11-27T06:43:46.331Z,18.80
2018-11-27T06:44:50.024Z,17.70
2018-11-27T06:45:53.656Z,17.05
2018-11-27T06:46:57.304Z,17.15
2018-11-27T06:48:00.924Z,16.50
2018-11-27T06:49:04.622Z,18.73
2018-11-27T06:50:09.995Z,17.57
2018-11-27T06:51:13.634Z,17.65
2018-11-27T06:52:17.239Z,17.30
2018-11-27T06:53:20.965Z,17.77
2018-11-27T06:54:24.601Z,17.05
2018-11-27T06:55:28.237Z,21.30
2018-11-27T06:56:31.852Z,19.80
2018-11-27T06:57:35.692Z,19.27
2018-11-27T06:58:39.427Z,20.17
2018-11-27T06:59:43.048Z,17.73
2018-11-27T07:00:46.636Z,17.52
2018-11-27T07:01:50.273Z,19.95
2018-11-27T07:02:54.380Z,20.70
2018-11-27T07:03:58.019Z,18.35
2018-11-27T07:05:01.823Z,22.58
2018-11-27T07:06:05.716Z,19.00
2018-11-27T07:07:09.357Z,18.77
2018-11-27T07:08:13.005Z,18.85
2018-11-27T07:09:16.649Z,18.40
2018-11-27T07:10:22.689Z,17.90
2018-11-27T07:11:26.337Z,17.65
2018-11-27T07:12:29.969Z,19.60
2018-11-27T07:13:33.629Z,18.12
2018-11-27T07:14:37.252Z,18.27
2018-11-27T07:15:40.922Z,17.17
2018-11-27T07:16:44.561Z,16.57
2018-11-27T07:17:48.183Z,18.57
2018-11-27T07:18:51.881Z,18.00
2018-11-27T07:19:55.496Z,17.57
2018-11-27T07:20:59.145Z,18.05
2018-11-27T07:22:02.751Z,19.55
2018-11-27T07:23:07.096Z,17.95
2018-11-27T07:24:10.749Z,17.62
2018-11-27T07:25:15.167Z,16.75
2018-11-27T07:26:18.835Z,16.15
2018-11-27T07:27:22.460Z,17.50
2018-11-27T07:28:26.080Z,16.40
2018-11-27T07:29:29.696Z,16.52
2018-11-27T07:30:33.303Z,18.07
2018-11-27T07:31:36.938Z,17.82
2018-11-27T07:32:40.568Z,17.35
2018-11-27T07:33:44.226Z,17.80
2018-11-27T07:34:47.890Z,16.20
2018-11-27T07:35:51.507Z,17.45
2018-11-27T07:36:55.123Z,17.77
2018-11-27T07:37:58.757Z,16.40
2018-11-27T07:39:02.406Z,15.85
2018-11-27T07:40:09.301Z,16.00
2018-11-27T07:41:12.923Z,17.35
2018-11-27T07:42:16.558Z,16.82
2018-11-27T07:43:20.184Z,16.87
2018-11-27T07:44:23.785Z,17.90
2018-11-27T07:45:27.456Z,17.85
2018-11-27T07:46:31.125Z,17.70
2018-11-27T07:47:34.763Z,17.65
2018-11-27T07:48:39.059Z,16.77
2018-11-27T07:49:42.701Z,17.12
2018-11-27T07:50:46.543Z,17.17
2018-11-27T07:51:50.196Z,15.78
2018-11-27T07:52:53.892Z,16.80
2018-11-27T07:53:57.528Z,17.95
2018-11-27T07:55:01.158Z,16.42
2018-11-27T07:56:06.133Z,15.80
2018-11-27T07:57:09.785Z,18.60
2018-11-27T07:58:13.419Z,16.65
2018-11-27T07:59:17.058Z,15.85
2018-11-27T08:00:22.605Z,15.65
2018-11-27T08:01:26.236Z,15.70
2018-11-27T08:02:29.829Z,17.32
2018-11-27T08:03:33.564Z,17.60
2018-11-27T08:04:37.194Z,18.87
2018-11-27T08:05:41.363Z,16.45
2018-11-27T08:06:45.022Z,15.70
2018-11-27T08:07:53.773Z,17.85
2018-11-27T08:08:57.390Z,15.20
2018-11-27T08:10:00.994Z,15.60
2018-11-27T08:11:04.773Z,16.73
2018-11-27T08:12:08.412Z,15.60
2018-11-27T08:13:12.154Z,15.63
2018-11-27T08:14:15.751Z,16.25
2018-11-27T08:15:20.766Z,16.55
2018-11-27T08:16:24.398Z,15.95
2018-11-27T08:17:28.084Z,16.35
2018-11-27T08:18:31.757Z,15.43
2018-11-27T08:19:35.382Z,15.55
2018-11-27T08:20:39.038Z,16.95
2018-11-27T08:21:43.115Z,17.15
2018-11-27T08:22:46.793Z,16.87
2018-11-27T08:23:50.593Z,15.08
2018-11-27T08:24:54.203Z,15.53
2018-11-27T08:25:57.802Z,16.77
2018-11-27T08:27:01.467Z,18.40
2018-11-27T08:28:06.489Z,16.82
2018-11-27T08:29:10.125Z,23.35
2018-11-27T08:30:15.001Z,16.27
2018-11-27T08:31:18.632Z,16.10
2018-11-27T08:32:22.268Z,15.13
2018-11-27T08:33:25.915Z,15.25
2018-11-27T08:34:29.563Z,16.10
2018-11-27T08:35:33.265Z,17.10
2018-11-27T08:36:37.067Z,18.17
2018-11-27T08:37:41.132Z,18.07
2018-11-27T08:38:44.786Z,16.10
2018-11-27T08:39:48.432Z,17.27
2018-11-27T08:40:52.068Z,17.85
2018-11-27T08:41:55.695Z,16.87
2018-11-27T08:42:59.323Z,16.67
2018-11-27T08:44:03.035Z,18.95
2018-11-27T08:45:15.144Z,18.87
2018-11-27T08:46:18.757Z,16.45
2018-11-27T08:47:22.370Z,15.65
2018-11-27T08:48:32.567Z,17.98
2018-11-27T08:49:36.171Z,15.20
2018-11-27T08:50:40.438Z,15.10
2018-11-27T08:51:44.147Z,17.80
2018-11-27T08:52:48.957Z,15.38
2018-11-27T08:53:52.606Z,18.67
2018-11-27T08:54:56.483Z,16.30
2018-11-27T08:56:00.119Z,18.27
2018-11-27T08:57:03.759Z,17.90
2018-11-27T08:58:17.010Z,15.45
2018-11-27T08:59:20.665Z,14.85
2018-11-27T09:00:25.329Z,14.60
2018-11-27T09:01:29.037Z,14.65
2018-11-27T09:02:32.647Z,14.75
2018-11-27T09:03:36.265Z,14.65
2018-11-27T09:04:39.873Z,13.53
2018-11-27T09:05:43.499Z,16.55
2018-11-27T09:06:47.128Z,15.63
2018-11-27T09:07:50.811Z,14.85
2018-11-27T09:08:54.469Z,14.28
2018-11-27T09:09:58.090Z,15.30
2018-11-27T09:11:01.706Z,15.40
2018-11-27T09:12:05.653Z,15.45
2018-11-27T09:13:09.232Z,14.95
2018-11-27T09:14:14.049Z,14.75
2018-11-27T09:15:17.888Z,15.05
2018-11-27T09:16:22.568Z,14.65
2018-11-27T09:17:27.531Z,15.72
2018-11-27T09:18:31.214Z,14.13
2018-11-27T09:19:34.985Z,14.78
2018-11-27T09:20:38.666Z,14.05
2018-11-27T09:21:42.372Z,15.15
2018-11-27T09:22:46.090Z,14.38
2018-11-27T09:23:49.751Z,14.23
2018-11-27T09:24:53.430Z,14.80
2018-11-27T09:25:57.116Z,14.53
2018-11-27T09:27:00.813Z,14.20
2018-11-27T09:28:04.504Z,14.18
2018-11-27T09:29:08.118Z,14.93
2018-11-27T09:30:17.889Z,14.35
2018-11-27T09:31:21.506Z,14.20
2018-11-27T09:32:25.119Z,16.00
2018-11-27T09:33:28.729Z,15.50
2018-11-27T09:34:32.343Z,15.60
2018-11-27T09:35:36.117Z,16.95
2018-11-27T09:36:39.747Z,14.45
2018-11-27T09:37:43.377Z,14.85
2018-11-27T09:38:47.078Z,13.28
2018-11-27T09:39:50.677Z,14.13
2018-11-27T09:40:54.547Z,14.87
2018-11-27T09:41:58.353Z,14.68
2018-11-27T09:43:01.972Z,14.63
2018-11-27T09:44:07.402Z,13.88
2018-11-27T09:45:12.382Z,14.93
2018-11-27T09:46:15.982Z,14.70
2018-11-27T09:47:19.717Z,13.95
2018-11-27T09:48:23.352Z,15.10
2018-11-27T09:49:27.071Z,15.75
2018-11-27T09:50:30.790Z,16.23
2018-11-27T09:51:34.542Z,15.53
2018-11-27T09:52:38.847Z,16.25
2018-11-27T09:53:42.594Z,15.43
2018-11-27T09:54:46.239Z,14.40
2018-11-27T09:55:49.852Z,14.80
2018-11-27T09:56:53.521Z,15.13
2018-11-27T09:57:59.365Z,14.75
2018-11-27T09:59:00.769Z,14.60
2018-11-27T10:00:05.842Z,16.57
2018-11-27T10:01:09.830Z,15.43
2018-11-27T10:02:13.602Z,15.68
2018-11-27T10:03:17.270Z,14.30
2018-11-27T10:04:20.876Z,14.15
2018-11-27T10:05:24.495Z,14.65
2018-11-27T10:06:28.316Z,15.15
2018-11-27T10:07:32.046Z,14.40
2018-11-27T10:08:35.650Z,13.65
2018-11-27T10:09:40.022Z,14.23
2018-11-27T10:10:43.455Z,13.15
2018-11-27T10:11:48.214Z,13.93
2018-11-27T10:12:52.428Z,12.82
2018-11-27T10:13:56.121Z,13.10
2018-11-27T10:14:59.770Z,14.03
2018-11-27T10:16:03.410Z,13.70
2018-11-27T10:17:06.999Z,13.45
2018-11-27T10:18:10.638Z,14.15
2018-11-27T10:19:14.235Z,14.33
2018-11-27T10:20:19.856Z,13.65
2018-11-27T10:21:23.498Z,13.98
2018-11-27T10:22:27.184Z,13.83
2018-11-27T10:23:30.927Z,14.33
2018-11-27T10:24:34.699Z,14.10
2018-11-27T10:25:38.352Z,13.28
2018-11-27T10:26:41.994Z,14.00
2018-11-27T10:27:45.678Z,13.60
2018-11-27T10:28:49.348Z,13.60
2018-11-27T10:29:52.977Z,14.38
2018-11-27T10:30:56.650Z,13.50
2018-11-27T10:32:00.313Z,13.32
2018-11-27T10:33:05.592Z,13.58
2018-11-27T10:34:09.223Z,12.53
2018-11-27T10:35:32.215Z,13.95
2018-11-27T10:36:35.820Z,11.80
2018-11-27T10:37:39.432Z,13.65
2018-11-27T10:38:43.152Z,13.72
2018-11-27T10:39:46.787Z,13.10
2018-11-27T10:40:50.388Z,13.75
2018-11-27T10:41:54.010Z,13.72
2018-11-27T10:42:57.654Z,13.35
2018-11-27T10:44:01.236Z,15.48
2018-11-27T10:45:07.024Z,13.45
2018-11-27T10:46:10.743Z,13.28
2018-11-27T10:47:14.316Z,14.18
2018-11-27T10:48:17.993Z,14.13
2018-11-27T10:49:21.619Z,13.03
2018-11-27T10:50:25.454Z,13.58
2018-11-27T10:51:29.206Z,13.50
2018-11-27T10:52:32.850Z,13.98
2018-11-27T10:53:36.456Z,12.35
2018-11-27T10:54:40.132Z,13.60
2018-11-27T10:55:43.832Z,13.55
2018-11-27T10:56:47.429Z,14.20
2018-11-27T10:57:51.074Z,15.23
2018-11-27T10:58:54.758Z,14.10
2018-11-27T10:59:58.362Z,14.40
2018-11-27T11:01:08.822Z,15.18
2018-11-27T11:02:17.860Z,14.40
2018-11-27T11:03:24.923Z,13.65
2018-11-27T11:04:28.554Z,13.98
2018-11-27T11:05:34.200Z,15.13
2018-11-27T11:06:37.810Z,13.53
2018-11-27T11:07:41.406Z,14.18
2018-11-27T11:08:45.017Z,15.25
2018-11-27T11:09:48.607Z,14.00
2018-11-27T11:10:52.270Z,15.55
2018-11-27T11:11:59.225Z,14.45
2018-11-27T11:12:59.525Z,15.90
2018-11-27T11:14:03.152Z,15.35
2018-11-27T11:15:07.548Z,15.50
2018-11-27T11:16:11.177Z,14.00
2018-11-27T11:17:14.808Z,15.50
2018-11-27T11:18:18.518Z,14.10
2018-11-27T11:19:22.144Z,14.15
2018-11-27T11:20:25.883Z,15.68
2018-11-27T11:21:29.467Z,14.75
2018-11-27T11:22:33.065Z,15.35
2018-11-27T11:23:36.779Z,15.25
2018-11-27T11:24:40.370Z,14.70
2018-11-27T11:25:44.595Z,14.30
2018-11-27T11:26:47.629Z,13.30
2018-11-27T11:27:54.872Z,14.63
2018-11-27T11:28:58.528Z,14.15
2018-11-27T11:30:02.186Z,14.45
2018-11-27T11:31:06.736Z,14.00
2018-11-27T11:32:10.141Z,13.30
2018-11-27T11:33:13.758Z,14.30
2018-11-27T11:34:17.387Z,13.58
2018-11-27T11:35:21.066Z,13.95
2018-11-27T11:36:24.685Z,14.78
2018-11-27T11:37:28.307Z,13.68
2018-11-27T11:38:31.987Z,13.40
2018-11-27T11:39:35.593Z,14.70
2018-11-27T11:40:39.204Z,13.35
2018-11-27T11:41:42.944Z,13.80
2018-11-27T11:42:47.036Z,13.58
2018-11-27T11:43:50.662Z,14.18
2018-11-27T11:44:54.398Z,15.70
2018-11-27T11:45:58.036Z,14.93
2018-11-27T11:47:01.904Z,14.40
2018-11-27T11:48:05.894Z,15.05
2018-11-27T11:49:09.510Z,15.45
2018-11-27T11:50:15.356Z,15.35
2018-11-27T11:51:19.633Z,15.32
2018-11-27T11:52:23.236Z,15.28
2018-11-27T11:53:26.991Z,14.85
2018-11-27T11:54:30.713Z,15.08
2018-11-27T11:55:34.331Z,14.10
2018-11-27T11:56:37.941Z,14.35
2018-11-27T11:57:42.129Z,14.47
2018-11-27T11:58:45.758Z,14.03
2018-11-27T11:59:49.375Z,14.90
2018-11-27T12:00:54.198Z,14.25
2018-11-27T12:01:57.827Z,15.43
2018-11-27T12:03:01.645Z,15.98
2018-11-27T12:04:05.590Z,16.17
2018-11-27T12:05:10.253Z,14.75
2018-11-27T12:06:13.878Z,15.40
2018-11-27T12:07:17.556Z,15.75
2018-11-27T12:08:21.348Z,15.03
2018-11-27T12:09:24.971Z,15.25
2018-11-27T12:10:28.604Z,15.00
2018-11-27T12:11:32.359Z,14.10
2018-11-27T12:12:35.954Z,15.35
2018-11-27T12:13:39.571Z,15.32
2018-11-27T12:14:43.195Z,14.00
2018-11-27T12:15:46.827Z,14.43
2018-11-27T12:16:50.453Z,14.78
2018-11-27T12:17:54.083Z,14.90
2018-11-27T12:18:57.711Z,14.33
2018-11-27T12:20:01.321Z,14.38
2018-11-27T12:21:04.958Z,14.68
2018-11-27T12:22:08.618Z,14.40
2018-11-27T12:23:12.626Z,14.85
2018-11-27T12:24:16.254Z,14.47
2018-11-27T12:25:24.240Z,14.45
2018-11-27T12:26:23.671Z,14.45
2018-11-27T12:27:27.301Z,15.05
2018-11-27T12:28:30.898Z,14.33
2018-11-27T12:29:34.549Z,15.18
2018-11-27T12:30:38.187Z,13.65
2018-11-27T12:31:41.875Z,14.80
2018-11-27T12:32:45.523Z,14.73
2018-11-27T12:33:49.356Z,14.58
2018-11-27T12:34:52.999Z,14.03
2018-11-27T12:35:56.698Z,14.30
2018-11-27T12:37:00.311Z,14.35
2018-11-27T12:38:04.036Z,14.30
2018-11-27T12:39:08.319Z,14.53
2018-11-27T12:40:13.022Z,14.40
2018-11-27T12:41:16.629Z,14.98
2018-11-27T12:42:20.339Z,14.35
2018-11-27T12:43:23.957Z,14.70
2018-11-27T12:44:27.582Z,13.93
2018-11-27T12:45:32.192Z,15.58
2018-11-27T12:46:35.801Z,15.60
2018-11-27T12:47:39.582Z,15.50
2018-11-27T12:48:43.163Z,15.53
2018-11-27T12:49:46.766Z,14.73
2018-11-27T12:50:50.440Z,15.93
2018-11-27T12:51:54.028Z,15.65
2018-11-27T12:52:57.633Z,15.18
2018-11-27T12:54:08.039Z,15.43
2018-11-27T12:55:13.043Z,17.60
2018-11-27T12:56:16.677Z,16.20
2018-11-27T12:57:20.294Z,15.25
2018-11-27T12:58:23.886Z,13.78
2018-11-27T12:59:27.610Z,14.18
2018-11-27T13:00:31.246Z,14.15
2018-11-27T13:01:34.928Z,15.78
2018-11-27T13:02:38.622Z,14.73
2018-11-27T13:03:42.232Z,14.95
2018-11-27T13:04:45.863Z,12.90
2018-11-27T13:05:49.525Z,14.10
2018-11-27T13:06:53.125Z,13.62
2018-11-27T13:08:00.311Z,15.08
2018-11-27T13:09:07.057Z,13.72
2018-11-27T13:10:13.685Z,14.35
2018-11-27T13:11:17.327Z,14.45
2018-11-27T13:12:20.945Z,14.28
2018-11-27T13:13:24.565Z,14.95
2018-11-27T13:14:28.182Z,14.03
2018-11-27T13:15:31.790Z,14.83
2018-11-27T13:16:35.371Z,14.30
2018-11-27T13:17:39.022Z,13.93
2018-11-27T13:18:42.581Z,14.20
2018-11-27T13:19:46.242Z,13.78
2018-11-27T13:20:49.859Z,14.55
2018-11-27T13:21:53.459Z,15.05
2018-11-27T13:22:57.053Z,15.20
2018-11-27T13:24:00.827Z,14.85
2018-11-27T13:25:05.946Z,15.28
2018-11-27T13:26:09.600Z,14.38
2018-11-27T13:27:13.257Z,14.75
2018-11-27T13:28:16.831Z,15.08
2018-11-27T13:29:20.454Z,14.40
2018-11-27T13:30:26.436Z,14.10
2018-11-27T13:31:30.891Z,14.80
2018-11-27T13:32:34.528Z,13.35
2018-11-27T13:33:58.127Z,14.78
2018-11-27T13:35:01.707Z,13.98
2018-11-27T13:36:06.670Z,13.50
2018-11-27T13:37:10.390Z,13.20
2018-11-27T13:38:14.047Z,13.48
2018-11-27T13:39:29.929Z,15.20
2018-11-27T13:40:33.571Z,13.85
2018-11-27T13:41:37.235Z,14.25
2018-11-27T13:42:41.297Z,15.15
2018-11-27T13:43:44.893Z,13.65
2018-11-27T13:44:48.495Z,14.78